createdAt,value
2019-06-20T00:00:48.645Z,23.10
2019-06-20T00:03:24.123Z,23.20
2019-06-20T00:05:58.207Z,23.20
2019-06-20T00:08:33.397Z,23.20
2019-06-20T00:11:08.340Z,23.20
2019-06-20T00:13:44.922Z,23.20
2019-06-20T00:16:21.748Z,23.20
2019-06-20T00:18:56.683Z,23.10
2019-06-20T00:21:39.392Z,23.10
2019-06-20T00:24:15.046Z,23.10
2019-06-20T00:26:50.891Z,23.00
2019-06-20T00:29:25.662Z,22.90
2019-06-20T00:32:03.639Z,22.90
2019-06-20T00:34:37.472Z,23.00
2019-06-20T00:37:14.971Z,23.10
2019-06-20T00:39:50.175Z,23.20
2019-06-20T00:42:28.311Z,23.20
2019-06-20T00:45:04.750Z,23.30
2019-06-20T00:47:39.779Z,23.20
2019-06-20T00:50:14.770Z,23.20
2019-06-20T00:52:51.537Z,23.30
2019-06-20T00:55:30.652Z,23.40
2019-06-20T00:58:05.232Z,23.50
2019-06-20T01:00:41.879Z,23.50
2019-06-20T01:03:20.463Z,23.50
2019-06-20T01:05:54.681Z,23.50
2019-06-20T01:08:30.634Z,23.50
2019-06-20T01:11:11.910Z,23.50
2019-06-20T01:13:48.123Z,23.60
2019-06-20T01:16:22.982Z,23.50
2019-06-20T01:18:59.066Z,23.50
2019-06-20T01:21:34.456Z,23.50
2019-06-20T01:24:08.960Z,23.50
2019-06-20T01:26:42.934Z,23.50
2019-06-20T01:29:18.554Z,23.60
2019-06-20T01:31:58.610Z,23.70
2019-06-20T01:34:34.937Z,23.60
2019-06-20T01:37:10.104Z,23.70
2019-06-20T01:39:50.895Z,23.70
2019-06-20T01:42:30.795Z,23.60
2019-06-20T01:45:15.935Z,23.60
2019-06-20T01:47:49.353Z,23.40
2019-06-20T01:50:29.920Z,23.30
2019-06-20T01:53:04.880Z,23.40
2019-06-20T01:55:39.499Z,23.50
2019-06-20T01:58:13.449Z,23.60
2019-06-20T02:00:51.777Z,23.70
2019-06-20T02:03:27.465Z,23.60
2019-06-20T02:06:02.693Z,23.40
2019-06-20T02:08:38.500Z,23.50
2019-06-20T02:11:13.245Z,23.60
2019-06-20T02:14:07.114Z,23.60
2019-06-20T02:16:34.473Z,23.50
2019-06-20T02:19:11.234Z,23.50
2019-06-20T02:21:49.536Z,23.40
2019-06-20T02:24:26.472Z,23.40
2019-06-20T02:27:03.248Z,23.40
2019-06-20T02:29:48.087Z,23.30
2019-06-20T02:32:24.264Z,23.30
2019-06-20T02:35:06.630Z,23.30
2019-06-20T02:37:43.605Z,23.10
2019-06-20T02:40:18.695Z,23.20
2019-06-20T02:42:54.756Z,23.10
2019-06-20T02:45:29.733Z,23.20
2019-06-20T02:48:05.015Z,23.20
2019-06-20T02:50:47.946Z,23.30
2019-06-20T02:53:24.324Z,23.30
2019-06-20T02:56:06.663Z,23.20
2019-06-20T02:58:45.343Z,23.30
2019-06-20T03:01:19.560Z,23.20
2019-06-20T03:03:56.793Z,23.30
2019-06-20T03:06:32.423Z,23.40
2019-06-20T03:09:11.110Z,23.50
2019-06-20T03:11:44.960Z,23.70
2019-06-20T03:14:20.541Z,23.70
2019-06-20T03:16:57.964Z,23.60
2019-06-20T03:19:36.328Z,23.60
2019-06-20T03:22:11.157Z,23.50
2019-06-20T03:24:49.469Z,23.50
2019-06-20T03:27:24.672Z,23.20
2019-06-20T03:30:03.382Z,23.00
2019-06-20T03:32:38.274Z,23.10
2019-06-20T03:35:14.591Z,23.00
2019-06-20T03:37:50.326Z,23.10
2019-06-20T03:40:27.572Z,23.10
2019-06-20T03:43:05.730Z,23.10
2019-06-20T03:45:42.202Z,23.20
2019-06-20T03:48:18.030Z,23.20
2019-06-20T03:51:09.059Z,23.20
2019-06-20T03:53:51.711Z,23.20
2019-06-20T03:56:25.565Z,23.20
2019-06-20T03:59:01.264Z,23.20
2019-06-20T04:01:42.360Z,23.20
2019-06-20T04:04:21.020Z,23.10
2019-06-20T04:06:57.384Z,23.10
2019-06-20T04:09:31.599Z,23.00
2019-06-20T04:12:07.096Z,23.00
2019-06-20T04:14:43.002Z,23.10
2019-06-20T04:17:19.158Z,23.20
2019-06-20T04:19:57.472Z,23.20
2019-06-20T04:22:32.414Z,23.20
2019-06-20T04:28:02.821Z,23.20
2019-06-20T04:30:41.118Z,23.10
2019-06-20T04:33:18.848Z,23.20
2019-06-20T04:35:56.870Z,23.20
2019-06-20T04:38:34.481Z,23.30
2019-06-20T04:41:16.718Z,23.40
2019-06-20T04:43:52.124Z,23.50
2019-06-20T04:46:28.868Z,23.40
2019-06-20T04:49:04.214Z,23.40
2019-06-20T04:51:41.804Z,23.20
2019-06-20T04:54:25.842Z,23.10
2019-06-20T04:57:03.192Z,23.20
2019-06-20T04:59:41.151Z,23.20
2019-06-20T05:02:18.157Z,23.30
2019-06-20T05:05:02.912Z,23.30
2019-06-20T05:07:41.042Z,23.20
2019-06-20T05:10:20.152Z,23.30
2019-06-20T05:13:03.145Z,23.20
2019-06-20T05:18:32.455Z,23.10
2019-06-20T05:21:10.542Z,23.10
2019-06-20T05:23:45.604Z,23.10
2019-06-20T05:29:13.324Z,23.10
2019-06-20T05:31:49.231Z,23.10
2019-06-20T05:34:26.907Z,23.20
2019-06-20T05:37:18.277Z,23.20
2019-06-20T05:39:52.656Z,23.20
2019-06-20T05:42:28.049Z,23.20
2019-06-20T05:45:05.363Z,23.30
2019-06-20T05:47:51.487Z,23.30
2019-06-20T05:50:30.991Z,23.20
2019-06-20T05:53:09.292Z,23.30
2019-06-20T05:55:45.497Z,23.20
2019-06-20T05:58:21.099Z,23.00
2019-06-20T06:01:03.503Z,23.10
2019-06-20T06:03:43.415Z,23.10
2019-06-20T06:06:18.169Z,23.10
2019-06-20T06:08:59.403Z,23.10
2019-06-20T06:11:49.033Z,23.10
2019-06-20T06:17:16.989Z,23.10
2019-06-20T06:20:03.570Z,23.10
2019-06-20T06:22:44.384Z,23.20
2019-06-20T06:25:31.471Z,23.10
2019-06-20T06:28:13.664Z,23.10
2019-06-20T06:30:47.629Z,23.10
2019-06-20T06:33:21.984Z,23.20
2019-06-20T06:36:04.203Z,23.10
2019-06-20T06:38:49.870Z,23.20
2019-06-20T06:41:24.901Z,23.20
2019-06-20T06:44:03.348Z,23.20
2019-06-20T06:46:52.841Z,23.20
2019-06-20T06:49:20.448Z,23.30
2019-06-20T06:51:58.815Z,23.40
2019-06-20T06:54:36.116Z,23.50
2019-06-20T06:57:14.000Z,23.50
2019-06-20T06:59:48.017Z,23.50
2019-06-20T07:02:23.317Z,23.50
2019-06-20T07:04:58.913Z,23.50
2019-06-20T07:07:35.604Z,23.40
2019-06-20T07:10:11.777Z,23.30
2019-06-20T07:12:50.698Z,23.30
2019-06-20T07:15:24.792Z,23.20
2019-06-20T07:18:03.638Z,23.40
2019-06-20T07:20:43.389Z,23.30
2019-06-20T07:23:26.477Z,23.30
2019-06-20T07:28:56.724Z,23.20
2019-06-20T07:31:33.137Z,23.20
2019-06-20T07:34:16.617Z,23.20
2019-06-20T07:36:50.768Z,23.30
2019-06-20T07:39:34.379Z,23.10
2019-06-20T07:42:11.636Z,22.90
2019-06-20T07:44:46.996Z,23.00
2019-06-20T07:47:33.498Z,23.00
2019-06-20T07:50:15.853Z,23.00
2019-06-20T07:53:02.110Z,23.00
2019-06-20T07:55:30.518Z,23.10
2019-06-20T07:58:06.421Z,23.10
2019-06-20T08:00:45.040Z,23.20
2019-06-20T08:03:21.196Z,23.10
2019-06-20T08:05:59.499Z,23.20
2019-06-20T08:08:35.976Z,23.10
2019-06-20T08:11:10.689Z,23.10
2019-06-20T08:13:55.647Z,23.20
2019-06-20T08:16:30.328Z,23.20
2019-06-20T08:19:05.776Z,23.10
2019-06-20T08:21:40.108Z,23.20
2019-06-20T08:24:22.520Z,23.30
2019-06-20T08:27:00.914Z,23.20
2019-06-20T08:29:39.964Z,23.20
2019-06-20T08:32:19.343Z,23.20
2019-06-20T08:35:00.539Z,23.20
2019-06-20T08:37:38.740Z,23.20
2019-06-20T08:40:14.773Z,23.10
2019-06-20T08:42:49.650Z,23.00
2019-06-20T08:45:25.491Z,23.00
2019-06-20T08:48:07.245Z,22.90
2019-06-20T08:51:00.079Z,22.90
2019-06-20T08:53:39.459Z,22.80
2019-06-20T08:56:13.831Z,22.70
2019-06-20T08:58:52.434Z,22.90
2019-06-20T09:01:27.859Z,22.70
2019-06-20T09:06:40.582Z,22.80
2019-06-20T09:09:16.186Z,22.90
2019-06-20T09:11:52.032Z,22.80
2019-06-20T09:14:30.853Z,22.70
2019-06-20T09:17:06.542Z,22.80
2019-06-20T09:19:41.747Z,22.70
2019-06-20T09:22:16.983Z,22.80
2019-06-20T09:24:55.068Z,22.70
2019-06-20T09:27:28.519Z,22.70
2019-06-20T09:30:08.488Z,22.60
2019-06-20T09:32:46.729Z,22.80
2019-06-20T09:35:25.524Z,22.60
2019-06-20T09:38:03.665Z,22.60
2019-06-20T09:43:27.308Z,22.60
2019-06-20T09:45:53.157Z,22.60
2019-06-20T09:48:29.179Z,22.50
2019-06-20T09:51:07.662Z,22.50
2019-06-20T09:53:43.285Z,22.50
2019-06-20T09:56:17.475Z,22.60
2019-06-20T09:58:55.240Z,22.60
2019-06-20T10:01:31.348Z,22.60
2019-06-20T10:04:06.753Z,22.50
2019-06-20T10:06:41.928Z,22.20
2019-06-20T10:09:21.633Z,22.20
2019-06-20T10:11:59.155Z,22.20
2019-06-20T10:14:41.392Z,22.10
2019-06-20T10:17:15.488Z,22.10
2019-06-20T10:19:50.417Z,22.10
2019-06-20T10:22:24.482Z,22.20
2019-06-20T10:25:02.957Z,22.10
2019-06-20T10:27:40.395Z,22.00
2019-06-20T10:30:16.838Z,21.90
2019-06-20T10:32:54.450Z,22.00
2019-06-20T10:35:33.225Z,22.00
2019-06-20T10:38:09.250Z,21.90
2019-06-20T10:40:53.885Z,21.90
2019-06-20T10:43:27.929Z,21.90
2019-06-20T10:46:05.960Z,21.90
2019-06-20T10:48:44.332Z,21.80
2019-06-20T10:51:35.624Z,21.90
2019-06-20T10:54:11.097Z,21.90
2019-06-20T10:56:45.836Z,21.90
2019-06-20T10:59:22.884Z,22.00
2019-06-20T11:01:58.573Z,22.00
2019-06-20T11:04:42.417Z,22.10
2019-06-20T11:07:18.241Z,22.10
2019-06-20T11:09:54.097Z,22.20
2019-06-20T11:12:42.431Z,22.10
2019-06-20T11:15:03.906Z,22.20
2019-06-20T11:17:41.954Z,22.10
2019-06-20T11:20:18.733Z,22.10
2019-06-20T11:22:55.608Z,22.00
2019-06-20T11:25:32.991Z,21.90
2019-06-20T11:28:19.212Z,21.90
2019-06-20T11:31:00.454Z,21.90
2019-06-20T11:33:36.470Z,21.90
2019-06-20T11:36:12.103Z,21.90
2019-06-20T11:38:49.163Z,21.70
2019-06-20T11:41:28.370Z,21.80
2019-06-20T11:44:08.315Z,21.90
2019-06-20T11:46:59.627Z,21.90
2019-06-20T11:49:34.549Z,21.90
2019-06-20T11:52:10.884Z,21.90
2019-06-20T11:54:47.215Z,21.90
2019-06-20T12:03:22.569Z,22.00
2019-06-20T12:06:16.201Z,21.80
2019-06-20T12:08:50.569Z,21.70
2019-06-20T12:11:24.575Z,21.50
2019-06-20T12:14:02.263Z,21.30
2019-06-20T12:16:40.822Z,21.30
2019-06-20T12:19:16.366Z,21.40
2019-06-20T12:21:50.299Z,21.50
2019-06-20T12:24:25.878Z,21.60
2019-06-20T12:27:12.994Z,21.70
2019-06-20T12:29:49.377Z,21.60
2019-06-20T12:32:24.499Z,21.70
2019-06-20T12:35:17.110Z,21.70
2019-06-20T12:37:52.358Z,21.70
2019-06-20T12:40:28.542Z,21.70
2019-06-20T12:43:10.158Z,21.70
2019-06-20T12:45:47.899Z,21.60
2019-06-20T12:48:32.743Z,21.60
2019-06-20T12:51:07.108Z,21.60
2019-06-20T12:53:44.158Z,21.70
2019-06-20T12:56:18.411Z,21.70
2019-06-20T12:59:00.775Z,21.70
2019-06-20T13:01:53.456Z,21.70
2019-06-20T13:07:32.095Z,21.60
2019-06-20T13:10:07.635Z,21.50
2019-06-20T13:12:46.609Z,21.50
2019-06-20T13:15:25.493Z,21.40
2019-06-20T13:18:07.067Z,21.40
2019-06-20T13:20:53.323Z,21.40
2019-06-20T13:23:41.525Z,21.50
2019-06-20T13:26:19.456Z,21.50
2019-06-20T13:29:03.718Z,21.50
2019-06-20T13:31:30.875Z,21.40
2019-06-20T13:34:11.591Z,21.40
2019-06-20T13:36:47.472Z,21.50
2019-06-20T13:39:30.878Z,21.50
2019-06-20T13:42:07.385Z,21.50
2019-06-20T13:44:45.592Z,21.40
2019-06-20T13:47:24.336Z,21.50
2019-06-20T13:49:59.726Z,21.50
2019-06-20T13:52:38.297Z,21.40
2019-06-20T13:55:14.341Z,21.40
2019-06-20T13:57:57.120Z,21.30
2019-06-20T14:00:36.034Z,21.40
2019-06-20T14:03:15.433Z,21.40
2019-06-20T14:06:00.546Z,21.50
2019-06-20T14:08:37.192Z,21.30
2019-06-20T14:11:20.212Z,21.30
2019-06-20T14:14:14.976Z,21.10
2019-06-20T14:16:51.372Z,21.10
2019-06-20T14:19:33.690Z,21.00
2019-06-20T14:22:12.098Z,21.00
2019-06-20T14:24:55.467Z,21.00
2019-06-20T14:36:12.463Z,20.90
2019-06-20T14:44:41.311Z,21.20
2019-06-20T14:47:21.223Z,21.30
2019-06-20T14:50:00.568Z,21.40
2019-06-20T14:52:46.123Z,21.50
2019-06-20T14:58:12.042Z,21.40
2019-06-20T15:00:52.110Z,21.40
2019-06-20T15:03:36.743Z,21.50
2019-06-20T15:06:16.231Z,21.50
2019-06-20T15:09:04.844Z,21.50
2019-06-20T15:11:45.843Z,21.60
2019-06-20T15:14:23.872Z,21.60
2019-06-20T15:17:02.441Z,21.50
2019-06-20T15:19:40.025Z,21.60
2019-06-20T15:25:21.861Z,21.70
2019-06-20T15:27:57.722Z,21.70
2019-06-20T15:30:37.328Z,21.60
2019-06-20T15:33:17.722Z,21.70
2019-06-20T15:36:00.170Z,21.70
2019-06-20T15:41:41.399Z,21.70
2019-06-20T15:44:22.656Z,21.70
2019-06-20T15:49:52.182Z,21.70
2019-06-20T15:52:27.523Z,21.70
2019-06-20T15:55:08.526Z,21.70
2019-06-20T15:57:47.900Z,21.70
2019-06-20T16:00:26.952Z,21.70
2019-06-20T16:03:10.077Z,21.80
2019-06-20T16:05:50.380Z,21.90
2019-06-20T16:08:27.686Z,21.90
2019-06-20T16:11:13.101Z,21.90
2019-06-20T16:13:59.871Z,21.90
2019-06-20T16:16:37.242Z,21.90
2019-06-20T16:19:15.297Z,21.90
2019-06-20T16:21:59.930Z,22.00
2019-06-20T16:24:35.322Z,22.10
2019-06-20T16:27:13.277Z,22.10
2019-06-20T16:29:52.565Z,22.10
2019-06-20T16:32:27.232Z,22.10
2019-06-20T16:35:03.030Z,22.10
2019-06-20T16:37:40.748Z,22.10
2019-06-20T16:40:21.435Z,22.10
2019-06-20T16:43:06.149Z,22.10
2019-06-20T16:45:42.505Z,22.20
2019-06-20T16:48:25.441Z,22.30
2019-06-20T16:51:05.643Z,22.10
2019-06-20T16:53:50.550Z,22.20
2019-06-20T16:56:36.159Z,22.30
2019-06-20T16:59:14.348Z,22.40
2019-06-20T17:01:54.691Z,22.40
2019-06-20T17:04:30.838Z,22.50
2019-06-20T17:07:15.819Z,22.50
2019-06-20T17:09:59.959Z,22.40
2019-06-20T17:12:42.024Z,22.50
2019-06-20T17:15:26.409Z,22.50
2019-06-20T17:18:04.985Z,22.60
2019-06-20T17:20:43.541Z,22.60
2019-06-20T17:23:22.285Z,22.60
2019-06-20T17:26:03.148Z,22.60
2019-06-20T17:28:45.171Z,22.40
2019-06-20T17:31:22.431Z,22.40
2019-06-20T17:37:00.962Z,22.20
2019-06-20T17:39:39.676Z,22.30
2019-06-20T17:42:14.304Z,22.40
2019-06-20T17:44:50.279Z,22.40
2019-06-20T17:47:24.634Z,22.20
2019-06-20T17:50:03.626Z,22.20
2019-06-20T17:52:39.072Z,22.30
2019-06-20T17:55:30.637Z,22.30
2019-06-20T17:58:18.771Z,22.40
2019-06-20T18:00:54.631Z,22.40
2019-06-20T18:03:37.946Z,22.40
2019-06-20T18:06:13.319Z,22.40
2019-06-20T18:08:48.317Z,22.50
2019-06-20T18:11:23.973Z,22.60
2019-06-20T18:14:00.760Z,22.60
2019-06-20T18:16:34.879Z,22.50
2019-06-20T18:19:12.582Z,22.50
2019-06-20T18:21:48.439Z,22.50
2019-06-20T18:24:26.355Z,22.50
2019-06-20T18:27:02.676Z,22.60
2019-06-20T18:29:37.328Z,22.50
2019-06-20T18:32:15.638Z,22.50
2019-06-20T18:35:01.526Z,22.40
2019-06-20T18:37:31.495Z,22.50
2019-06-20T18:40:04.549Z,22.50
2019-06-20T18:42:38.683Z,22.60
2019-06-20T18:45:12.821Z,22.60
2019-06-20T18:47:48.151Z,22.60
2019-06-20T18:50:22.055Z,22.60
2019-06-20T18:52:55.851Z,22.60
2019-06-20T18:55:29.856Z,22.60
2019-06-20T18:58:03.909Z,22.60
2019-06-20T19:00:40.612Z,22.60
2019-06-20T19:03:14.734Z,22.70
2019-06-20T19:05:48.993Z,22.60
2019-06-20T19:08:24.718Z,22.60
2019-06-20T19:10:59.017Z,22.60
2019-06-20T19:13:37.403Z,22.50
2019-06-20T19:16:11.440Z,22.40
2019-06-20T19:18:45.305Z,22.50
2019-06-20T19:21:19.423Z,22.50
2019-06-20T19:23:55.436Z,22.30
2019-06-20T19:26:31.214Z,22.10
2019-06-20T19:29:06.798Z,22.10
2019-06-20T19:31:41.339Z,22.30
2019-06-20T19:34:15.403Z,22.30
2019-06-20T19:36:51.123Z,22.30
2019-06-20T19:39:25.147Z,22.40
2019-06-20T19:42:01.024Z,22.40
2019-06-20T19:44:34.953Z,22.40
2019-06-20T19:47:08.810Z,22.40
2019-06-20T19:49:42.762Z,22.40
2019-06-20T19:52:17.095Z,22.40
2019-06-20T19:54:51.277Z,22.20
2019-06-20T19:57:25.272Z,22.10
2019-06-20T20:00:06.672Z,22.10
2019-06-20T20:02:42.939Z,22.20
2019-06-20T20:05:19.560Z,22.20
2019-06-20T20:07:54.790Z,22.20
2019-06-20T20:10:32.279Z,22.10
2019-06-20T20:13:06.318Z,22.10
2019-06-20T20:15:40.972Z,22.10
2019-06-20T20:18:15.360Z,22.10
2019-06-20T20:20:53.665Z,22.20
2019-06-20T20:23:29.143Z,22.20
2019-06-20T20:26:02.900Z,22.30
2019-06-20T20:28:38.208Z,22.40
2019-06-20T20:31:11.922Z,22.30
2019-06-20T20:33:46.290Z,22.30
2019-06-20T20:36:25.275Z,22.30
2019-06-20T20:38:57.045Z,22.30
2019-06-20T20:41:30.818Z,22.40
2019-06-20T20:44:06.259Z,22.40
2019-06-20T20:46:41.564Z,22.40
2019-06-20T20:49:15.745Z,22.40
2019-06-20T20:51:49.778Z,22.50
2019-06-20T20:54:24.821Z,22.40
2019-06-20T20:56:58.561Z,22.50
2019-06-20T20:59:36.700Z,22.40
2019-06-20T21:02:12.051Z,22.50
2019-06-20T21:04:48.823Z,22.50
2019-06-20T21:07:24.228Z,22.50
2019-06-20T21:09:58.292Z,22.60
2019-06-20T21:12:32.767Z,22.60
2019-06-20T21:15:07.970Z,22.60
2019-06-20T21:17:45.778Z,22.60
2019-06-20T21:20:21.219Z,22.50
2019-06-20T21:22:56.325Z,22.40
2019-06-20T21:25:32.365Z,22.40
2019-06-20T21:28:05.545Z,22.50
2019-06-20T21:30:40.088Z,22.50
2019-06-20T21:33:15.771Z,22.50
2019-06-20T21:35:49.986Z,22.50
2019-06-20T21:38:23.807Z,22.40
2019-06-20T21:40:57.783Z,22.40
2019-06-20T21:43:33.273Z,22.30
2019-06-20T21:46:09.204Z,22.40
2019-06-20T21:48:44.353Z,22.30
2019-06-20T21:51:19.918Z,22.30
2019-06-20T21:53:55.464Z,22.40
2019-06-20T21:56:30.786Z,22.40
2019-06-20T21:59:04.510Z,22.40
2019-06-20T22:01:38.848Z,22.40
2019-06-20T22:04:16.829Z,22.40
2019-06-20T22:06:51.371Z,22.40
2019-06-20T22:09:25.206Z,22.40
2019-06-20T22:12:03.756Z,22.40
2019-06-20T22:14:38.560Z,22.40
2019-06-20T22:17:12.794Z,22.30
2019-06-20T22:19:46.959Z,22.30
2019-06-20T22:22:23.083Z,22.40
2019-06-20T22:24:56.806Z,22.30
2019-06-20T22:27:30.713Z,22.30
2019-06-20T22:30:06.077Z,22.40
2019-06-20T22:32:41.468Z,22.30
2019-06-20T22:35:16.698Z,22.20
2019-06-20T22:37:51.192Z,22.20
2019-06-20T22:40:26.773Z,22.30
2019-06-20T22:43:00.967Z,22.20
2019-06-20T22:45:45.259Z,22.30
2019-06-20T22:48:17.589Z,22.20
2019-06-20T22:50:51.454Z,22.20
2019-06-20T22:53:27.188Z,22.20
2019-06-20T22:56:04.560Z,22.20
2019-06-20T22:58:40.474Z,22.30
2019-06-20T23:01:16.212Z,22.20
2019-06-20T23:03:51.702Z,22.40
2019-06-20T23:06:29.130Z,22.30
2019-06-20T23:09:05.166Z,22.30
2019-06-20T23:11:40.313Z,22.30
2019-06-20T23:14:14.537Z,22.30
2019-06-20T23:16:52.614Z,22.30
2019-06-20T23:19:32.303Z,22.20
2019-06-20T23:22:11.102Z,22.20
2019-06-20T23:24:50.274Z,22.30
2019-06-20T23:27:27.388Z,22.40
2019-06-20T23:30:01.543Z,22.50
2019-06-20T23:32:36.732Z,22.50
2019-06-20T23:35:11.019Z,22.40
2019-06-20T23:37:46.487Z,22.40
2019-06-20T23:40:21.532Z,22.40
2019-06-20T23:42:58.264Z,22.50
2019-06-20T23:45:36.611Z,22.50
2019-06-20T23:48:14.213Z,22.50
2019-06-20T23:50:48.198Z,22.50
2019-06-20T23:53:28.357Z,22.60
2019-06-20T23:56:02.784Z,22.50
2019-06-20T23:58:38.228Z,22.60
